createdAt,value
2022-10-22T00:00:16.937Z,14.36
2022-10-22T00:02:44.164Z,14.39
2022-10-22T00:05:11.709Z,14.38
2022-10-22T00:07:38.926Z,14.38
2022-10-22T00:10:06.902Z,14.40
2022-10-22T00:12:34.078Z,14.41
2022-10-22T00:15:00.815Z,14.43
2022-10-22T00:17:27.544Z,14.43
2022-10-22T00:19:54.313Z,14.42
2022-10-22T00:22:20.963Z,14.42
2022-10-22T00:24:47.723Z,14.42
2022-10-22T00:27:15.048Z,14.42
2022-10-22T00:29:41.782Z,14.42
2022-10-22T00:32:08.711Z,14.40
2022-10-22T00:34:35.409Z,14.40
2022-10-22T00:37:02.057Z,14.40
2022-10-22T00:39:29.470Z,14.40
2022-10-22T00:41:57.869Z,14.39
2022-10-22T00:45:02.150Z,14.39
2022-10-22T00:47:39.586Z,14.38
2022-10-22T00:50:11.426Z,14.37
2022-10-22T00:52:40.866Z,14.38
2022-10-22T00:55:08.055Z,14.39
2022-10-22T00:57:36.508Z,14.39
2022-10-22T01:00:05.543Z,14.35
2022-10-22T01:02:32.375Z,14.33
2022-10-22T01:04:59.112Z,14.32
2022-10-22T01:07:26.271Z,14.31
2022-10-22T01:09:52.833Z,14.31
2022-10-22T01:12:29.324Z,14.30
2022-10-22T01:15:23.825Z,14.30
2022-10-22T01:17:58.277Z,14.28
2022-10-22T01:21:07.621Z,14.28
2022-10-22T01:23:52.564Z,14.27
2022-10-22T01:29:05.724Z,14.28
2022-10-22T01:31:38.827Z,14.26
2022-10-22T01:34:08.444Z,14.27
2022-10-22T01:36:37.525Z,14.27
2022-10-22T01:39:06.709Z,14.26
2022-10-22T01:41:34.897Z,14.27
2022-10-22T01:44:01.666Z,14.27
2022-10-22T01:46:29.376Z,14.25
2022-10-22T01:49:21.740Z,14.23
2022-10-22T01:51:57.179Z,14.22
2022-10-22T01:54:35.715Z,14.18
2022-10-22T01:57:11.676Z,14.17
2022-10-22T01:59:41.249Z,14.16
2022-10-22T02:02:39.687Z,14.10
2022-10-22T02:05:23.204Z,14.04
2022-10-22T02:07:55.536Z,14.00
2022-10-22T02:10:23.942Z,13.96
2022-10-22T02:12:54.718Z,13.92
2022-10-22T02:15:23.991Z,13.89
2022-10-22T02:17:53.375Z,13.87
2022-10-22T02:20:33.375Z,13.87
2022-10-22T02:23:01.764Z,13.87
2022-10-22T02:25:32.596Z,13.84
2022-10-22T02:28:15.873Z,13.82
2022-10-22T02:30:46.900Z,13.80
2022-10-22T02:33:22.453Z,13.79
2022-10-22T02:35:51.097Z,13.77
2022-10-22T02:38:19.208Z,13.73
2022-10-22T02:40:46.990Z,13.68
2022-10-22T02:43:14.108Z,13.66
2022-10-22T02:45:41.046Z,13.63
2022-10-22T02:48:08.024Z,13.62
2022-10-22T02:50:34.810Z,13.58
2022-10-22T02:53:01.536Z,13.56
2022-10-22T02:55:28.382Z,13.53
2022-10-22T02:57:55.217Z,13.50
2022-10-22T03:00:22.375Z,13.47
2022-10-22T03:02:49.098Z,13.42
2022-10-22T03:05:16.003Z,13.39
2022-10-22T03:07:43.169Z,13.36
2022-10-22T03:10:10.171Z,13.34
2022-10-22T03:12:36.881Z,13.32
2022-10-22T03:15:04.108Z,13.30
2022-10-22T03:17:30.821Z,13.27
2022-10-22T03:19:57.447Z,13.26
2022-10-22T03:22:28.420Z,13.28
2022-10-22T03:25:00.862Z,13.28
2022-10-22T03:27:30.242Z,13.27
2022-10-22T03:29:58.876Z,13.27
2022-10-22T03:32:25.587Z,13.28
2022-10-22T03:34:52.480Z,13.27
2022-10-22T03:37:19.631Z,13.24
2022-10-22T03:39:46.880Z,13.22
2022-10-22T03:42:13.764Z,13.22
2022-10-22T03:44:41.191Z,13.23
2022-10-22T03:47:08.272Z,13.21
2022-10-22T03:49:35.146Z,13.19
2022-10-22T03:52:09.633Z,13.18
2022-10-22T03:57:09.436Z,13.15
2022-10-22T03:59:44.599Z,13.12
2022-10-22T04:02:13.438Z,13.10
2022-10-22T04:04:40.108Z,13.10
2022-10-22T04:07:08.458Z,13.10
2022-10-22T04:09:35.406Z,13.09
2022-10-22T04:12:02.158Z,13.09
2022-10-22T04:14:28.915Z,13.09
2022-10-22T04:16:55.725Z,13.07
2022-10-22T04:19:22.391Z,13.03
2022-10-22T04:21:49.387Z,12.99
2022-10-22T04:24:16.449Z,12.93
2022-10-22T04:26:43.573Z,12.87
2022-10-22T04:29:13.583Z,12.83
2022-10-22T04:31:42.811Z,12.79
2022-10-22T04:34:09.480Z,12.75
2022-10-22T04:36:36.425Z,12.71
2022-10-22T04:39:04.286Z,12.68
2022-10-22T04:41:33.495Z,12.65
2022-10-22T04:44:01.164Z,12.62
2022-10-22T04:46:30.666Z,12.61
2022-10-22T04:48:57.332Z,12.57
2022-10-22T04:51:26.226Z,12.53
2022-10-22T04:53:53.621Z,12.51
2022-10-22T04:56:23.178Z,12.48
2022-10-22T04:58:54.666Z,12.45
2022-10-22T05:01:24.269Z,12.41
2022-10-22T05:03:53.299Z,12.39
2022-10-22T05:06:23.333Z,12.34
2022-10-22T05:08:55.823Z,12.30
2022-10-22T05:11:33.966Z,12.30
2022-10-22T05:14:02.638Z,12.28
2022-10-22T05:16:30.354Z,12.27
2022-10-22T05:18:59.308Z,12.24
2022-10-22T05:21:26.600Z,12.22
2022-10-22T05:23:54.885Z,12.18
2022-10-22T05:26:22.784Z,12.14
2022-10-22T05:28:51.786Z,12.12
2022-10-22T05:31:18.998Z,12.07
2022-10-22T05:33:46.528Z,12.05
2022-10-22T05:36:16.626Z,12.03
2022-10-22T05:38:43.362Z,12.02
2022-10-22T05:41:12.591Z,11.98
2022-10-22T05:43:39.399Z,11.96
2022-10-22T05:46:09.231Z,11.95
2022-10-22T05:48:36.492Z,11.94
2022-10-22T05:51:05.650Z,11.93
2022-10-22T05:53:36.777Z,11.90
2022-10-22T05:56:06.796Z,11.89
2022-10-22T05:58:34.675Z,11.87
2022-10-22T06:01:13.001Z,11.85
2022-10-22T06:03:40.345Z,11.79
2022-10-22T06:06:42.214Z,11.75
2022-10-22T06:09:41.370Z,11.76
2022-10-22T06:12:11.421Z,11.72
2022-10-22T06:14:38.243Z,11.70
2022-10-22T06:17:05.013Z,11.71
2022-10-22T06:19:31.679Z,11.69
2022-10-22T06:21:58.394Z,11.66
2022-10-22T06:24:25.132Z,11.66
2022-10-22T06:26:52.432Z,11.63
2022-10-22T06:29:19.150Z,11.60
2022-10-22T06:31:45.830Z,11.56
2022-10-22T06:34:14.333Z,11.53
2022-10-22T06:36:42.896Z,11.51
2022-10-22T06:39:12.956Z,11.53
2022-10-22T06:41:40.134Z,11.55
2022-10-22T06:44:07.466Z,11.55
2022-10-22T06:46:34.152Z,11.55
2022-10-22T06:49:03.412Z,11.52
2022-10-22T06:51:30.299Z,11.52
2022-10-22T06:53:58.045Z,11.49
2022-10-22T06:56:27.244Z,11.48
2022-10-22T06:58:55.808Z,11.47
2022-10-22T07:01:28.713Z,11.44
2022-10-22T07:03:55.822Z,11.43
2022-10-22T07:06:23.809Z,11.40
2022-10-22T07:08:51.091Z,11.38
2022-10-22T07:11:23.494Z,11.36
2022-10-22T07:13:50.371Z,11.37
2022-10-22T07:16:18.476Z,11.40
2022-10-22T07:18:45.914Z,11.42
2022-10-22T07:21:15.071Z,11.43
2022-10-22T07:23:42.364Z,11.42
2022-10-22T07:26:10.028Z,11.41
2022-10-22T07:28:39.874Z,11.41
2022-10-22T07:31:09.342Z,11.43
2022-10-22T07:33:36.643Z,11.45
2022-10-22T07:36:06.606Z,11.45
2022-10-22T07:38:34.157Z,11.45
2022-10-22T07:41:01.208Z,11.45
2022-10-22T07:43:27.980Z,11.48
2022-10-22T07:45:57.852Z,11.53
2022-10-22T07:48:24.722Z,11.55
2022-10-22T07:50:52.127Z,11.62
2022-10-22T07:53:19.847Z,11.74
2022-10-22T07:55:51.223Z,11.85
2022-10-22T07:58:19.579Z,11.89
2022-10-22T08:05:38.278Z,12.02
2022-10-22T08:09:04.807Z,12.12
2022-10-22T08:16:23.649Z,12.22
2022-10-22T08:19:50.173Z,12.23
2022-10-22T08:23:16.795Z,12.24
2022-10-22T08:26:43.226Z,12.21
2022-10-22T08:33:52.930Z,12.41
2022-10-22T08:37:19.352Z,12.50
2022-10-22T08:44:37.096Z,12.43
2022-10-22T08:48:09.737Z,12.39
2022-10-22T08:54:39.270Z,12.45
2022-10-22T08:57:28.628Z,12.45
2022-10-22T09:00:55.364Z,12.49
2022-10-22T09:04:05.153Z,12.61
2022-10-22T09:07:31.838Z,12.81
2022-10-22T09:10:58.294Z,13.12
2022-10-22T09:18:08.972Z,13.77
2022-10-22T09:21:47.652Z,13.92
2022-10-22T09:25:14.187Z,14.15
2022-10-22T09:46:04.405Z,14.76
2022-10-22T09:48:35.037Z,14.82
2022-10-22T09:51:13.789Z,14.94
2022-10-22T09:54:04.689Z,15.04
2022-10-22T09:56:37.242Z,15.11
2022-10-22T09:59:04.275Z,15.19
2022-10-22T10:01:38.707Z,15.27
2022-10-22T10:04:09.901Z,15.38
2022-10-22T10:06:42.451Z,15.47
2022-10-22T10:09:21.034Z,15.59
2022-10-22T10:12:03.147Z,15.67
2022-10-22T10:14:45.199Z,15.80
2022-10-22T10:17:36.851Z,15.92
2022-10-22T10:20:15.566Z,15.97
2022-10-22T10:22:58.422Z,16.08
2022-10-22T10:25:48.212Z,16.17
2022-10-22T10:28:15.070Z,16.27
2022-10-22T10:31:08.703Z,16.37
2022-10-22T10:33:47.405Z,16.44
2022-10-22T10:36:40.266Z,16.52
2022-10-22T10:39:13.029Z,16.60
2022-10-22T10:41:39.551Z,16.72
2022-10-22T10:44:29.965Z,16.83
2022-10-22T10:47:20.553Z,16.98
2022-10-22T10:49:47.906Z,17.13
2022-10-22T10:52:27.880Z,17.28
2022-10-22T10:55:20.598Z,17.47
2022-10-22T10:57:54.268Z,17.59
2022-10-22T11:00:22.740Z,17.70
2022-10-22T11:03:10.801Z,17.81
2022-10-22T11:05:41.009Z,17.80
2022-10-22T11:08:46.317Z,17.90
2022-10-22T11:11:21.963Z,18.01
2022-10-22T11:14:03.379Z,18.29
2022-10-22T11:16:37.497Z,18.87
2022-10-22T11:19:49.596Z,19.74
2022-10-22T11:22:34.355Z,20.61
2022-10-22T11:25:13.206Z,20.02
2022-10-22T11:27:48.375Z,19.29
2022-10-22T11:30:21.936Z,19.03
2022-10-22T11:33:00.114Z,18.87
2022-10-22T11:35:30.601Z,18.26
2022-10-22T11:37:58.599Z,17.84
2022-10-22T11:41:37.610Z,17.44
2022-10-22T11:45:02.283Z,17.11
2022-10-22T11:48:19.201Z,16.87
2022-10-22T11:51:31.715Z,16.73
2022-10-22T11:54:47.261Z,16.66
2022-10-22T11:57:36.710Z,16.68
2022-10-22T12:01:21.318Z,16.68
2022-10-22T12:04:57.223Z,16.78
2022-10-22T12:08:35.581Z,17.03
2022-10-22T12:12:05.135Z,17.47
2022-10-22T12:19:25.899Z,17.77
2022-10-22T12:22:32.354Z,18.28
2022-10-22T12:29:59.593Z,18.78
2022-10-22T12:33:35.271Z,18.76
2022-10-22T12:41:04.906Z,18.66
2022-10-22T12:44:31.398Z,18.98
2022-10-22T12:47:58.140Z,18.98
2022-10-22T12:51:24.576Z,19.25
2022-10-22T12:58:45.002Z,19.97
2022-10-22T13:02:14.344Z,19.87
2022-10-22T13:09:16.677Z,21.28
2022-10-22T13:12:48.953Z,22.38
2022-10-22T13:15:47.594Z,23.95
2022-10-22T13:19:14.015Z,23.82
2022-10-22T13:22:40.578Z,22.80
2022-10-22T13:25:36.105Z,21.64
2022-10-22T13:28:42.795Z,21.03
2022-10-22T13:32:09.245Z,20.53
2022-10-22T13:34:36.610Z,21.45
2022-10-22T13:38:03.194Z,21.83
2022-10-22T13:47:41.531Z,31.20
2022-10-22T13:51:14.259Z,32.46
2022-10-22T13:53:41.644Z,32.77
2022-10-22T13:57:10.038Z,32.40
2022-10-22T14:03:34.746Z,29.08
2022-10-22T14:06:01.895Z,27.54
2022-10-22T14:08:28.908Z,26.33
2022-10-22T14:10:55.897Z,25.42
2022-10-22T14:13:22.886Z,24.54
2022-10-22T14:16:49.646Z,23.76
2022-10-22T14:20:16.239Z,23.05
2022-10-22T14:26:35.392Z,22.14
2022-10-22T14:29:11.327Z,21.67
2022-10-22T14:31:44.486Z,21.36
2022-10-22T14:34:13.786Z,21.16
2022-10-22T14:36:43.751Z,20.97
2022-10-22T14:39:11.147Z,20.93
2022-10-22T14:41:38.492Z,20.91
2022-10-22T14:44:05.341Z,20.80
2022-10-22T14:46:32.432Z,20.74
2022-10-22T14:48:59.193Z,20.52
2022-10-22T14:51:26.015Z,20.30
2022-10-22T14:53:52.862Z,20.05
2022-10-22T14:56:22.689Z,20.04
2022-10-22T14:58:50.095Z,19.91
2022-10-22T15:01:17.487Z,19.66
2022-10-22T15:03:44.214Z,19.40
2022-10-22T15:06:11.033Z,19.17
2022-10-22T15:08:37.914Z,18.92
2022-10-22T15:11:07.601Z,18.75
2022-10-22T15:13:35.304Z,18.66
2022-10-22T15:16:02.419Z,18.67
2022-10-22T15:18:29.618Z,18.65
2022-10-22T15:21:00.503Z,18.65
2022-10-22T15:23:28.254Z,18.70
2022-10-22T15:25:55.753Z,18.74
2022-10-22T15:28:23.385Z,18.76
2022-10-22T15:30:59.424Z,18.62
2022-10-22T15:33:28.248Z,18.65
2022-10-22T15:35:56.113Z,18.78
2022-10-22T15:41:06.858Z,18.70
2022-10-22T15:43:34.890Z,18.67
2022-10-22T15:46:13.865Z,18.67
2022-10-22T15:48:41.611Z,18.59
2022-10-22T15:51:14.090Z,18.50
2022-10-22T15:53:41.646Z,18.38
2022-10-22T15:56:09.666Z,18.30
2022-10-22T15:58:36.608Z,18.24
2022-10-22T16:01:12.335Z,18.12
2022-10-22T16:03:39.555Z,18.01
2022-10-22T16:06:08.202Z,17.93
2022-10-22T16:08:35.411Z,17.90
2022-10-22T16:11:02.290Z,17.83
2022-10-22T16:13:29.042Z,17.75
2022-10-22T16:15:55.747Z,17.65
2022-10-22T16:18:23.778Z,17.62
2022-10-22T16:20:50.798Z,17.55
2022-10-22T16:23:19.076Z,17.54
2022-10-22T16:25:46.857Z,17.53
2022-10-22T16:28:14.125Z,17.55
2022-10-22T16:30:41.779Z,17.54
2022-10-22T16:33:10.078Z,17.55
2022-10-22T16:35:41.398Z,17.53
2022-10-22T16:38:10.439Z,17.43
2022-10-22T16:40:37.187Z,17.37
2022-10-22T16:43:03.899Z,17.31
2022-10-22T16:45:30.676Z,17.28
2022-10-22T16:47:57.529Z,17.24
2022-10-22T16:50:24.188Z,17.20
2022-10-22T16:52:50.954Z,17.16
2022-10-22T16:55:18.035Z,17.12
2022-10-22T16:57:50.715Z,17.10
2022-10-22T17:00:17.477Z,17.03
2022-10-22T17:02:44.568Z,17.00
2022-10-22T17:05:11.279Z,16.97
2022-10-22T17:07:38.023Z,16.96
2022-10-22T17:10:05.693Z,16.95
2022-10-22T17:12:35.511Z,16.86
2022-10-22T17:15:06.511Z,16.80
2022-10-22T17:17:33.669Z,16.72
2022-10-22T17:20:00.271Z,16.65
2022-10-22T17:22:27.253Z,16.59
2022-10-22T17:25:43.234Z,16.51
2022-10-22T17:28:13.412Z,16.40
2022-10-22T17:30:41.136Z,16.31
2022-10-22T17:33:08.669Z,16.23
2022-10-22T17:35:40.384Z,16.18
2022-10-22T17:38:07.772Z,16.15
2022-10-22T17:40:54.569Z,16.08
2022-10-22T17:43:49.017Z,16.01
2022-10-22T17:46:24.169Z,15.96
2022-10-22T17:48:52.564Z,15.91
2022-10-22T17:51:21.240Z,15.85
2022-10-22T17:53:50.299Z,15.81
2022-10-22T17:56:20.708Z,15.73
2022-10-22T17:58:47.438Z,15.71
2022-10-22T18:01:22.333Z,15.71
2022-10-22T18:03:49.773Z,15.67
2022-10-22T18:06:16.589Z,15.64
2022-10-22T18:08:43.858Z,15.60
2022-10-22T18:11:13.495Z,15.61
2022-10-22T18:13:40.207Z,15.59
2022-10-22T18:16:07.397Z,15.53
2022-10-22T18:18:35.117Z,15.50
2022-10-22T18:21:02.585Z,15.50
2022-10-22T18:23:29.613Z,15.48
2022-10-22T18:25:56.282Z,15.47
2022-10-22T18:28:22.989Z,15.50
2022-10-22T18:30:50.013Z,15.49
2022-10-22T18:33:19.042Z,15.51
2022-10-22T18:35:48.598Z,15.52
2022-10-22T18:38:15.502Z,15.51
2022-10-22T18:40:48.624Z,15.48
2022-10-22T18:43:19.187Z,15.43
2022-10-22T18:45:47.740Z,15.40
2022-10-22T18:48:17.009Z,15.35
2022-10-22T18:50:44.726Z,15.32
2022-10-22T18:53:13.835Z,15.34
2022-10-22T18:55:41.233Z,15.36
2022-10-22T18:58:08.129Z,15.38
2022-10-22T19:00:35.868Z,15.38
2022-10-22T19:03:03.587Z,15.34
2022-10-22T19:05:31.180Z,15.31
2022-10-22T19:07:57.859Z,15.30
2022-10-22T19:10:24.534Z,15.26
2022-10-22T19:12:51.356Z,15.26
2022-10-22T19:15:18.032Z,15.18
2022-10-22T19:17:45.171Z,15.13
2022-10-22T19:20:13.275Z,15.07
2022-10-22T19:22:41.060Z,15.02
2022-10-22T19:25:11.212Z,14.96
2022-10-22T19:27:39.787Z,14.90
2022-10-22T19:30:07.420Z,14.87
2022-10-22T19:32:34.817Z,14.83
2022-10-22T19:35:01.779Z,14.81
2022-10-22T19:37:28.585Z,14.81
2022-10-22T19:39:55.236Z,14.78
2022-10-22T19:42:21.975Z,14.75
2022-10-22T19:44:48.744Z,14.73
2022-10-22T19:47:16.244Z,14.71
2022-10-22T19:49:42.955Z,14.70
2022-10-22T19:52:09.860Z,14.75
2022-10-22T19:54:40.955Z,14.79
2022-10-22T19:57:08.669Z,14.83
2022-10-22T19:59:35.866Z,14.86
2022-10-22T20:02:03.946Z,14.88
2022-10-22T20:04:30.862Z,14.88
2022-10-22T20:06:57.649Z,14.90
2022-10-22T20:09:24.982Z,14.89
2022-10-22T20:11:51.657Z,14.90
2022-10-22T20:14:18.482Z,14.91
2022-10-22T20:16:45.302Z,14.88
2022-10-22T20:19:16.207Z,14.90
2022-10-22T20:21:44.242Z,14.91
2022-10-22T20:24:12.426Z,14.90
2022-10-22T20:26:39.207Z,14.90
2022-10-22T20:29:05.995Z,14.87
2022-10-22T20:31:33.306Z,14.83
2022-10-22T20:34:01.528Z,14.82
2022-10-22T20:36:30.089Z,14.83
2022-10-22T20:39:09.142Z,14.81
2022-10-22T20:41:40.806Z,14.80
2022-10-22T20:44:14.970Z,14.80
2022-10-22T20:46:42.796Z,14.79
2022-10-22T20:49:13.145Z,14.78
2022-10-22T20:51:39.975Z,14.74
2022-10-22T20:54:08.232Z,14.71
2022-10-22T20:56:37.932Z,14.71
2022-10-22T20:59:05.897Z,14.67
2022-10-22T21:01:36.807Z,14.66
2022-10-22T21:04:04.498Z,14.63
2022-10-22T21:06:31.549Z,14.62
2022-10-22T21:08:58.450Z,14.56
2022-10-22T21:11:25.144Z,14.52
2022-10-22T21:13:52.109Z,14.51
2022-10-22T21:16:19.920Z,14.51
2022-10-22T21:18:47.455Z,14.52
2022-10-22T21:21:17.102Z,14.51
2022-10-22T21:23:44.010Z,14.49
2022-10-22T21:26:11.107Z,14.48
2022-10-22T21:28:38.654Z,14.48
2022-10-22T21:31:08.217Z,14.47
2022-10-22T21:33:40.028Z,14.48
2022-10-22T21:36:09.196Z,14.45
2022-10-22T21:38:36.751Z,14.45
2022-10-22T21:41:13.788Z,14.42
2022-10-22T21:43:42.023Z,14.40
2022-10-22T21:46:14.082Z,14.39
2022-10-22T21:48:40.917Z,14.38
2022-10-22T21:51:17.143Z,14.43
2022-10-22T21:53:44.357Z,14.47
2022-10-22T21:56:16.375Z,14.50
2022-10-22T21:58:43.731Z,14.56
2022-10-22T22:01:12.607Z,14.63
2022-10-22T22:03:46.260Z,14.67
2022-10-22T22:06:13.638Z,14.69
2022-10-22T22:08:40.534Z,14.72
2022-10-22T22:11:10.765Z,14.73
2022-10-22T22:13:38.567Z,14.74
2022-10-22T22:16:08.598Z,14.75
2022-10-22T22:18:36.395Z,14.74
2022-10-22T22:21:06.328Z,14.74
2022-10-22T22:23:33.940Z,14.73
2022-10-22T22:26:01.870Z,14.73
2022-10-22T22:28:32.389Z,14.71
2022-10-22T22:30:59.283Z,14.69
2022-10-22T22:33:26.400Z,14.70
2022-10-22T22:35:53.641Z,14.72
2022-10-22T22:38:20.306Z,14.69
2022-10-22T22:40:47.246Z,14.68
2022-10-22T22:43:14.195Z,14.67
2022-10-22T22:45:41.090Z,14.65
2022-10-22T22:48:08.454Z,14.66
2022-10-22T22:50:36.870Z,14.68
2022-10-22T22:53:03.618Z,14.68
2022-10-22T22:55:32.279Z,14.68
2022-10-22T22:57:59.112Z,14.69
2022-10-22T23:00:25.910Z,14.69
2022-10-22T23:02:56.539Z,14.68
2022-10-22T23:05:23.201Z,14.63
2022-10-22T23:07:49.844Z,14.59
2022-10-22T23:10:16.737Z,14.56
2022-10-22T23:12:43.755Z,14.56
2022-10-22T23:15:11.124Z,14.58
2022-10-22T23:17:38.741Z,14.59
2022-10-22T23:20:06.077Z,14.58
2022-10-22T23:22:32.699Z,14.59
2022-10-22T23:24:59.549Z,14.56
2022-10-22T23:27:26.254Z,14.55
2022-10-22T23:29:52.895Z,14.51
2022-10-22T23:32:19.728Z,14.46
2022-10-22T23:34:46.394Z,14.42
2022-10-22T23:37:13.109Z,14.40
2022-10-22T23:39:39.879Z,14.38
2022-10-22T23:42:06.652Z,14.36
2022-10-22T23:44:33.289Z,14.34
2022-10-22T23:47:00.275Z,14.32
2022-10-22T23:49:26.938Z,14.30
2022-10-22T23:51:53.563Z,14.30
2022-10-22T23:54:20.524Z,14.28
2022-10-22T23:56:47.363Z,14.28
